Time;durP1;ratioP1;P1;durP2;ratioP2;P2;SDS_P1;SDS_P2;PMS_P1;PMS_P2;Temp;Humidity;BMP_temperature;BMP_pressure;BME280_temperature;BME280_humidity;BME280_pressure;Samples;Min_cycle;Max_cycle;Signal;HPM_P1;HPM_P2
2021/07/10 00:01:32;;;;;;;42.58;28.75;;;;;;;17.33;83.11;101835.03;5064262;28;20103;-61
2021/07/10 00:03:57;;;;;;;41.67;28.20;;;;;;;17.34;83.20;101834.13;5061542;28;20021;-63
2021/07/10 00:06:23;;;;;;;42.58;28.67;;;;;;;17.28;83.08;101835.97;5063079;28;20052;-61
2021/07/10 00:08:48;;;;;;;40.80;28.23;;;;;;;17.24;83.59;101833.31;5062770;28;20064;-62
2021/07/10 00:11:13;;;;;;;40.45;27.92;;;;;;;17.23;83.83;101826.19;5061678;28;20013;-63
2021/07/10 00:13:39;;;;;;;42.92;28.30;;;;;;;17.21;83.97;101827.09;5064526;28;20029;-62
2021/07/10 00:16:04;;;;;;;44.88;29.58;;;;;;;17.24;83.11;101822.63;5060591;28;20078;-62
2021/07/10 00:18:30;;;;;;;43.40;28.38;;;;;;;17.21;82.82;101817.31;5063824;28;20540;-62
2021/07/10 00:20:55;;;;;;;41.75;27.67;;;;;;;17.16;82.87;101818.25;5061846;28;20036;-62
2021/07/10 00:23:21;;;;;;;40.63;26.85;;;;;;;17.14;83.01;101822.69;5062234;28;20033;-62
2021/07/10 00:25:46;;;;;;;43.17;28.02;;;;;;;17.01;83.18;101828.16;5062975;28;20099;-62
2021/07/10 00:28:11;;;;;;;39.40;26.42;;;;;;;17.02;83.45;101827.25;5060703;28;20116;-62
2021/07/10 00:30:37;;;;;;;44.25;28.30;;;;;;;17.01;84.13;101828.16;5064252;28;20218;-62
2021/07/10 00:33:02;;;;;;;43.10;28.30;;;;;;;17.01;84.18;101830.81;5060852;28;20026;-61
2021/07/10 00:35:29;;;;;;;42.20;27.15;;;;;;;17.00;84.12;101823.69;5063093;28;20032;-61
2021/07/10 00:37:54;;;;;;;43.05;27.35;;;;;;;17.05;83.95;101821.91;5061580;28;20131;-61
2021/07/10 00:40:20;;;;;;;43.08;27.80;;;;;;;17.10;83.12;101827.19;5062065;28;20115;-62
2021/07/10 00:42:45;;;;;;;41.95;26.77;;;;;;;17.13;83.04;101818.28;5062831;28;20110;-62
2021/07/10 00:45:15;;;;;;;41.55;26.88;;;;;;;17.06;83.03;101817.44;5060746;28;20061;-62
2021/07/10 00:47:41;;;;;;;43.47;26.77;;;;;;;17.07;82.98;101817.41;5063279;28;20051;-61
2021/07/10 00:50:17;;;;;;;43.55;26.63;;;;;;;16.98;82.99;101819.25;5060603;28;20033;-62
2021/07/10 00:52:42;;;;;;;42.53;26.58;;;;;;;16.94;84.17;101817.53;5061074;28;20112;-64
2021/07/10 00:55:08;;;;;;;43.20;26.33;;;;;;;16.92;84.13;101811.28;5063944;28;20071;-62
2021/07/10 00:57:35;;;;;;;41.53;27.08;;;;;;;16.89;84.29;101810.44;5060395;28;20025;-61
2021/07/10 01:00:07;;;;;;;46.42;29.02;;;;;;;16.95;84.00;101814.84;5063615;28;20025;-61
2021/07/10 01:02:33;;;;;;;45.60;28.38;;;;;;;16.92;84.27;101808.63;5060557;28;20090;-63
2021/07/10 01:04:58;;;;;;;44.50;26.80;;;;;;;16.95;84.07;101801.50;5063221;28;20460;-63
2021/07/10 01:07:24;;;;;;;46.15;28.02;;;;;;;16.93;84.09;101799.72;5061438;28;20028;-61
2021/07/10 01:09:49;;;;;;;45.17;27.65;;;;;;;16.92;84.76;101788.16;5061485;28;20052;-62
2021/07/10 01:12:14;;;;;;;45.33;27.75;;;;;;;16.95;84.96;101790.81;5063157;28;20031;-63
2021/07/10 01:14:40;;;;;;;45.63;27.23;;;;;;;16.95;84.46;101790.81;5060148;28;20071;-65
2021/07/10 01:17:05;;;;;;;47.83;28.80;;;;;;;16.96;84.46;101789.00;5063839;28;20028;-61
2021/07/10 01:19:30;;;;;;;45.50;28.92;;;;;;;16.93;84.93;101789.91;5060539;28;20028;-62
2021/07/10 01:21:57;;;;;;;46.40;27.33;;;;;;;16.98;84.72;101781.88;5062697;28;20029;-64
2021/07/10 01:24:23;;;;;;;44.95;28.05;;;;;;;16.98;84.60;101792.53;5061868;28;20025;-64
2021/07/10 01:26:48;;;;;;;44.53;27.80;;;;;;;16.97;84.96;101783.66;5060968;28;20033;-62
2021/07/10 01:29:13;;;;;;;44.83;26.92;;;;;;;16.85;85.23;101781.94;5066602;28;20074;-64
2021/07/10 01:31:39;;;;;;;44.85;27.00;;;;;;;16.80;85.75;101783.72;5063997;28;20036;-64
2021/07/10 01:34:05;;;;;;;45.13;27.85;;;;;;;16.79;86.16;101776.66;5067374;28;20024;-63
2021/07/10 01:36:31;;;;;;;45.42;27.98;;;;;;;16.77;85.96;101772.22;5064030;28;20028;-63
2021/07/10 01:38:57;;;;;;;47.20;28.92;;;;;;;16.84;86.17;101771.25;5066427;28;20422;-62
2021/07/10 01:41:22;;;;;;;46.45;28.42;;;;;;;16.87;85.82;101763.22;5065118;28;20031;-63
2021/07/10 01:43:48;;;;;;;49.85;28.88;;;;;;;16.92;85.22;101757.88;5065110;28;20021;-64
2021/07/10 01:46:13;;;;;;;48.70;29.20;;;;;;;16.81;86.44;101763.28;5066793;28;20486;-65
2021/07/10 01:48:38;;;;;;;48.13;29.52;;;;;;;16.71;86.81;101757.97;5063330;28;20500;-62
2021/07/10 01:51:04;;;;;;;49.28;28.67;;;;;;;16.65;87.98;101766.03;5066584;28;20502;-62
2021/07/10 01:53:29;;;;;;;48.75;28.20;;;;;;;16.69;87.79;101764.25;5064204;28;20054;-62
2021/07/10 01:55:54;;;;;;;50.50;29.25;;;;;;;16.70;87.40;101758.00;5065342;28;20033;-62
2021/07/10 01:58:20;;;;;;;51.95;30.48;;;;;;;16.68;87.81;101751.78;5065242;28;20111;-62
2021/07/10 02:00:46;;;;;;;50.25;29.45;;;;;;;16.62;88.15;101760.72;5064139;28;20025;-61
2021/07/10 02:03:12;;;;;;;52.05;29.73;;;;;;;16.62;88.95;101755.38;5066367;28;20024;-62
2021/07/10 02:05:38;;;;;;;48.67;29.15;;;;;;;16.53;90.97;101752.78;5063402;28;20383;-62
2021/07/10 02:08:04;;;;;;;46.97;27.52;;;;;;;16.47;91.08;101750.13;5066419;28;20039;-63
2021/07/10 02:10:32;;;;;;;51.85;28.98;;;;;;;16.46;90.93;101748.38;5063685;28;20036;-64
2021/07/10 02:13:09;;;;;;;51.38;29.20;;;;;;;16.43;90.87;101743.06;5065491;28;20029;-65
2021/07/10 02:15:36;;;;;;;49.65;30.42;;;;;;;16.39;91.08;101750.19;5063130;28;20025;-64
2021/07/10 02:18:02;;;;;;;48.97;29.05;;;;;;;16.30;91.39;101751.13;5066256;28;20032;-62
2021/07/10 02:20:28;;;;;;;50.70;29.55;;;;;;;16.28;91.98;101744.91;5063957;28;20024;-63
2021/07/10 02:22:54;;;;;;;52.90;30.80;;;;;;;16.34;91.62;101749.34;5065107;28;20049;-66
2021/07/10 02:25:22;;;;;;;53.92;31.23;;;;;;;16.35;91.48;101745.75;5064613;28;20025;-66
2021/07/10 02:27:48;;;;;;;53.83;31.17;;;;;;;16.37;91.12;101752.00;5063521;28;20025;-64
2021/07/10 02:30:17;;;;;;;51.15;29.25;;;;;;;16.26;92.33;101744.03;5065704;28;20044;-62
2021/07/10 02:32:45;;;;;;;53.13;30.25;;;;;;;16.22;93.08;101742.25;5063243;28;20443;-68
2021/07/10 02:35:11;;;;;;;49.35;29.55;;;;;;;16.13;93.30;101743.19;5066158;28;20025;-68
2021/07/10 02:37:37;;;;;;;52.65;31.58;;;;;;;16.06;93.96;101738.78;5062765;28;20017;-68
2021/07/10 02:40:05;;;;;;;55.65;30.50;;;;;;;16.05;93.91;101739.69;5065280;28;20028;-68
2021/07/10 02:42:30;;;;;;;54.58;31.17;;;;;;;15.99;94.53;101734.38;5062727;28;20041;-68
2021/07/10 02:44:56;;;;;;;53.65;30.92;;;;;;;16.02;94.10;101729.91;5064783;28;20021;-68
2021/07/10 02:47:21;;;;;;;53.80;29.73;;;;;;;16.06;94.32;101724.56;5064084;28;20059;-68
2021/07/10 02:49:46;;;;;;;53.88;30.48;;;;;;;16.09;93.88;101719.22;5063494;28;20102;-68
2021/07/10 02:52:12;;;;;;;58.70;32.35;;;;;;;16.13;93.49;101721.84;5065630;28;20459;-68
2021/07/10 02:54:37;;;;;;;59.47;31.88;;;;;;;16.09;93.66;101721.88;5062126;28;20527;-68
2021/07/10 02:57:03;;;;;;;59.40;32.15;;;;;;;16.13;93.23;101719.19;5065346;28;20024;-68
2021/07/10 02:59:29;;;;;;;55.75;32.63;;;;;;;16.10;93.76;101713.88;5063263;28;20021;-69
2021/07/10 03:01:54;;;;;;;57.30;32.25;;;;;;;16.12;93.47;101719.19;5063969;28;20025;-68
2021/07/10 03:04:19;;;;;;;57.28;31.67;;;;;;;16.06;93.84;101717.44;5064125;28;20067;-68
2021/07/10 03:06:45;;;;;;;64.50;33.63;;;;;;;16.00;93.95;101709.47;5062448;28;20044;-68
2021/07/10 03:09:10;;;;;;;53.92;30.45;;;;;;;15.92;94.91;101704.19;5065304;28;20032;-65
2021/07/10 03:11:35;;;;;;;56.85;31.98;;;;;;;15.83;96.02;101698.91;5062084;28;20044;-68
2021/07/10 03:14:01;;;;;;;57.90;32.38;;;;;;;15.79;96.45;101698.00;5064722;28;20023;-68
2021/07/10 03:16:26;;;;;;;60.15;33.00;;;;;;;15.73;97.18;101700.66;5062899;28;20486;-68
2021/07/10 03:18:51;;;;;;;58.92;33.05;;;;;;;15.72;97.48;101687.34;5063408;28;20400;-68
2021/07/10 03:21:17;;;;;;;63.60;34.25;;;;;;;15.72;97.74;101687.34;5064296;28;20029;-67
2021/07/10 03:23:42;;;;;;;67.30;34.28;;;;;;;15.69;98.19;101682.91;5062194;28;20021;-67
2021/07/10 03:26:07;;;;;;;67.15;33.92;;;;;;;15.73;98.10;101686.44;5046580;28;20033;-67
2021/07/10 03:28:33;;;;;;;64.78;34.30;;;;;;;15.73;98.24;101684.69;5061633;28;20021;-68
2021/07/10 03:30:58;;;;;;;65.97;34.90;;;;;;;15.78;97.37;101676.66;5063856;28;20404;-67
2021/07/10 03:33:23;;;;;;;64.30;35.65;;;;;;;15.81;97.84;101679.34;5063392;28;20495;-68
2021/07/10 03:35:50;;;;;;;61.00;32.13;;;;;;;15.83;98.83;101680.25;5062515;28;20028;-68
2021/07/10 03:38:15;;;;;;;65.85;33.95;;;;;;;15.84;98.72;101676.66;5064142;28;20123;-68
2021/07/10 03:40:41;;;;;;;61.00;34.00;;;;;;;15.86;98.25;101677.56;5061300;28;20052;-66
2021/07/10 03:43:06;;;;;;;64.78;34.05;;;;;;;15.85;98.52;101681.09;5064679;28;20025;-68
2021/07/10 03:45:31;;;;;;;66.50;35.25;;;;;;;15.93;97.10;101689.97;5062108;28;20029;-68
2021/07/10 03:47:57;;;;;;;63.63;34.10;;;;;;;15.93;96.83;101687.31;5063073;28;20500;-68
2021/07/10 03:50:23;;;;;;;67.75;35.95;;;;;;;15.92;97.18;101682.84;5044501;28;20028;-68
2021/07/10 03:52:48;;;;;;;61.92;34.13;;;;;;;15.93;97.55;101684.63;5062388;28;20029;-68
2021/07/10 03:55:14;;;;;;;66.35;35.38;;;;;;;15.93;97.39;101692.63;5064123;28;20060;-68
2021/07/10 03:57:40;;;;;;;72.00;36.55;;;;;;;15.95;96.76;101687.28;5061493;28;20104;-68
2021/07/10 04:00:13;;;;;;;70.57;36.70;;;;;;;15.95;97.36;101681.97;5046992;28;20457;-68
2021/07/10 04:02:38;;;;;;;66.93;35.58;;;;;;;16.06;96.16;101684.56;5061185;28;20418;-68
2021/07/10 04:05:05;;;;;;;72.93;37.22;;;;;;;16.10;94.89;101683.66;5063987;28;20095;-68
2021/07/10 04:07:32;;;;;;;67.32;35.65;;;;;;;16.19;94.48;101672.94;5061790;28;20387;-68
2021/07/10 04:09:59;;;;;;;68.28;37.05;;;;;;;16.18;94.16;101676.50;5063098;28;20099;-68
2021/07/10 04:12:25;;;;;;;72.07;36.35;;;;;;;16.21;93.54;101676.50;5062199;28;20028;-68
2021/07/10 04:14:50;;;;;;;67.93;36.55;;;;;;;16.28;93.09;101671.97;5061942;28;20040;-65
2021/07/10 04:17:15;;;;;;;66.40;36.53;;;;;;;16.32;93.88;101674.63;5063756;28;20031;-67
2021/07/10 04:19:40;;;;;;;68.50;34.97;;;;;;;16.36;94.22;101673.69;5060648;28;20479;-68
2021/07/10 04:22:06;;;;;;;69.78;36.92;;;;;;;16.32;93.44;101671.94;5061184;28;20564;-67
2021/07/10 04:24:31;;;;;;;71.63;37.38;;;;;;;16.30;92.31;101675.53;5063281;28;20416;-68
2021/07/10 04:26:56;;;;;;;69.10;37.60;;;;;;;16.25;93.00;101672.00;5061621;28;20166;-68
2021/07/10 04:29:22;;;;;;;69.93;36.88;;;;;;;16.26;93.11;101685.34;5062279;28;20033;-68
2021/07/10 04:31:47;;;;;;;69.53;36.95;;;;;;;16.29;92.94;101677.31;5062967;28;20075;-68
2021/07/10 04:34:12;;;;;;;68.38;36.65;;;;;;;16.34;92.96;101671.97;5060815;28;20107;-66
2021/07/10 04:36:38;;;;;;;68.07;36.25;;;;;;;16.42;92.82;101674.56;5064180;28;20020;-62
2021/07/10 04:39:04;;;;;;;70.35;36.40;;;;;;;16.54;92.32;101679.81;5060821;28;20037;-62
2021/07/10 04:41:30;;;;;;;70.95;37.33;;;;;;;16.62;91.09;101682.44;5063234;28;20029;-63
2021/07/10 04:43:55;;;;;;;72.93;37.30;;;;;;;16.67;89.85;101684.19;5061889;28;20035;-63
2021/07/10 04:46:20;;;;;;;68.97;37.47;;;;;;;16.69;90.35;101679.72;5061397;28;20036;-64
2021/07/10 04:48:46;;;;;;;71.97;38.22;;;;;;;16.77;90.23;101681.44;5044553;28;20123;-63
2021/07/10 04:51:11;;;;;;;71.13;36.83;;;;;;;16.86;89.95;101678.69;5060507;28;20065;-62
2021/07/10 04:53:36;;;;;;;74.80;37.45;;;;;;;16.92;89.42;101676.00;5060471;28;20064;-62
2021/07/10 04:56:02;;;;;;;72.15;37.15;;;;;;;16.97;88.23;101684.84;5063296;28;20071;-62
2021/07/10 04:58:27;;;;;;;73.68;37.42;;;;;;;16.96;88.09;101693.75;5061499;28;20062;-63
2021/07/10 05:00:52;;;;;;;71.82;37.28;;;;;;;17.01;88.21;101691.06;5061779;28;20029;-62
2021/07/10 05:03:18;;;;;;;69.68;37.35;;;;;;;17.08;88.04;101682.97;5066661;28;20032;-62
2021/07/10 05:05:43;;;;;;;72.97;38.08;;;;;;;17.14;88.20;101689.13;5064408;28;20035;-62
2021/07/10 05:08:09;;;;;;;72.13;37.65;;;;;;;17.09;88.06;101681.19;5050034;28;20100;-62
2021/07/10 05:10:35;;;;;;;69.40;36.10;;;;;;;17.09;88.27;101683.84;5064616;28;20023;-63
2021/07/10 05:13:00;;;;;;;72.57;37.05;;;;;;;17.13;88.14;101685.59;5066619;28;20522;-62
2021/07/10 05:15:26;;;;;;;65.57;35.55;;;;;;;17.20;87.47;101683.75;5065910;28;20028;-67
2021/07/10 05:17:51;;;;;;;67.25;36.35;;;;;;;17.27;87.14;101672.13;5065137;28;20049;-62
2021/07/10 05:20:16;;;;;;;66.90;36.90;;;;;;;17.32;86.94;101686.28;5066971;28;20044;-62
2021/07/10 05:22:42;;;;;;;69.28;36.80;;;;;;;17.46;86.12;101683.50;5064063;28;20495;-62
2021/07/10 05:25:09;;;;;;;65.82;35.85;;;;;;;17.54;85.04;101680.72;5067260;28;20024;-62
2021/07/10 05:27:35;;;;;;;67.85;35.90;;;;;;;17.61;85.04;101674.41;5063934;28;20065;-62
2021/07/10 05:30:00;;;;;;;65.55;35.03;;;;;;;17.65;84.51;101684.16;5066533;28;20499;-62
2021/07/10 05:32:25;;;;;;;64.70;35.50;;;;;;;17.67;83.82;101679.66;5065167;28;20069;-62
2021/07/10 05:34:51;;;;;;;62.47;34.38;;;;;;;17.64;83.62;101678.84;5064797;28;20097;-63
2021/07/10 05:37:16;;;;;;;63.17;34.13;;;;;;;17.74;83.85;101676.00;5066911;28;20028;-62
2021/07/10 05:39:42;;;;;;;62.38;33.75;;;;;;;17.85;83.10;101675.88;5063782;28;20317;-62
2021/07/10 05:42:09;;;;;;;64.55;33.72;;;;;;;17.90;82.46;101679.41;5063670;28;20040;-63
2021/07/10 05:44:35;;;;;;;59.28;33.80;;;;;;;17.96;81.33;101673.09;5066906;28;20021;-63
2021/07/10 05:47:00;;;;;;;57.58;32.92;;;;;;;18.02;81.06;101669.47;5064289;28;20435;-62
2021/07/10 05:49:25;;;;;;;60.58;32.22;;;;;;;18.01;81.39;101679.25;5065011;28;20116;-62
2021/07/10 05:51:51;;;;;;;58.78;30.98;;;;;;;17.91;81.08;101685.63;5065809;28;20173;-62
2021/07/10 05:54:16;;;;;;;55.67;31.55;;;;;;;17.86;82.17;101682.13;5063863;28;20064;-63
2021/07/10 05:56:43;;;;;;;56.05;31.13;;;;;;;17.83;82.38;101687.50;5067159;28;20021;-63
2021/07/10 05:59:08;;;;;;;55.25;29.80;;;;;;;17.76;82.08;101687.56;5063375;28;20017;-62
2021/07/10 06:01:33;;;;;;;50.55;28.65;;;;;;;17.79;81.82;101692.00;5066280;28;20036;-63
2021/07/10 06:03:59;;;;;;;53.35;29.67;;;;;;;17.80;81.40;101685.75;5064356;28;20025;-63
2021/07/10 06:06:24;;;;;;;51.05;28.85;;;;;;;17.89;80.94;101690.09;5064621;28;20029;-62
2021/07/10 06:08:49;;;;;;;52.80;29.23;;;;;;;18.04;81.22;101684.59;5065694;28;20028;-63
2021/07/10 06:11:17;;;;;;;60.47;30.95;;;;;;;18.21;81.26;101679.00;5064037;28;20076;-62
2021/07/10 06:13:42;;;;;;;52.42;29.73;;;;;;;18.33;79.05;101675.25;5065898;28;20023;-62
2021/07/10 06:16:08;;;;;;;54.47;31.10;;;;;;;18.44;77.49;101672.44;5062890;28;20407;-62
2021/07/10 06:18:34;;;;;;;51.45;29.50;;;;;;;18.57;76.26;101673.13;5065988;28;20021;-65
2021/07/10 06:20:59;;;;;;;52.80;30.35;;;;;;;18.69;75.39;101667.56;5067154;28;20123;-66
2021/07/10 06:23:24;;;;;;;54.10;30.73;;;;;;;18.69;75.36;101672.91;5068180;28;20060;-66
2021/07/10 06:25:50;;;;;;;49.17;28.50;;;;;;;18.71;74.58;101681.81;5068456;28;20387;-66
2021/07/10 06:28:15;;;;;;;50.70;28.98;;;;;;;18.71;73.72;101679.16;5069089;28;20383;-66
2021/07/10 06:30:40;;;;;;;50.60;28.88;;;;;;;18.78;73.65;101683.47;5070365;28;20025;-66
2021/07/10 06:33:06;;;;;;;53.00;31.35;;;;;;;18.80;74.74;101678.97;5066822;28;20155;-66
2021/07/10 06:35:31;;;;;;;57.30;33.50;;;;;;;18.93;76.38;101677.03;5066970;28;20085;-67
2021/07/10 06:37:57;;;;;;;56.95;33.90;;;;;;;19.05;75.53;101675.91;5070094;28;20013;-65
2021/07/10 06:40:22;;;;;;;57.88;34.17;;;;;;;19.12;75.91;101677.56;5066049;28;20032;-65
2021/07/10 06:42:48;;;;;;;59.72;34.47;;;;;;;19.21;75.35;101672.94;5065949;28;20021;-64
2021/07/10 06:45:16;;;;;;;59.28;34.83;;;;;;;19.29;74.74;101681.72;5068757;28;20083;-64
2021/07/10 06:47:42;;;;;;;53.50;32.10;;;;;;;19.37;73.17;101679.81;5065686;28;20071;-68
2021/07/10 06:50:09;;;;;;;50.65;29.25;;;;;;;19.41;72.61;101678.84;5069374;28;20403;-66
2021/07/10 06:52:35;;;;;;;50.80;29.10;;;;;;;19.50;72.18;101667.91;5069873;28;20036;-67
2021/07/10 06:55:02;;;;;;;45.00;26.67;;;;;;;19.59;69.71;101674.03;5067861;28;20112;-63
2021/07/10 06:57:27;;;;;;;45.72;25.83;;;;;;;19.46;67.77;101676.94;5065664;28;20078;-62
2021/07/10 06:59:53;;;;;;;43.22;23.63;;;;;;;19.44;68.65;101676.09;5061738;28;20032;-62
2021/07/10 07:02:18;;;;;;;39.25;20.80;;;;;;;19.59;65.02;101679.38;5064971;28;20020;-62
2021/07/10 07:04:43;;;;;;;37.45;19.13;;;;;;;19.62;63.40;101679.31;5062450;28;20024;-61
2021/07/10 07:07:09;;;;;;;38.42;20.35;;;;;;;19.65;65.07;101668.53;5063609;28;20021;-61
2021/07/10 07:09:34;;;;;;;41.55;22.08;;;;;;;19.73;65.29;101671.94;5063803;28;20024;-61
2021/07/10 07:12:00;;;;;;;34.13;17.63;;;;;;;19.87;63.38;101668.13;5062590;28;20086;-62
2021/07/10 07:14:25;;;;;;;36.13;18.77;;;;;;;20.06;64.14;101665.91;5046319;28;20051;-63
2021/07/10 07:16:51;;;;;;;38.25;19.73;;;;;;;20.17;63.44;101670.13;5061758;28;20028;-65
2021/07/10 07:19:16;;;;;;;34.80;17.73;;;;;;;20.23;61.91;101666.41;5064693;28;20390;-61
2021/07/10 07:21:41;;;;;;;36.47;19.20;;;;;;;20.24;62.39;101656.53;5062984;28;20107;-63
2021/07/10 07:24:07;;;;;;;37.17;18.65;;;;;;;20.15;62.12;101654.94;5063372;28;20466;-64
2021/07/10 07:26:33;;;;;;;33.35;16.45;;;;;;;20.24;60.88;101657.44;5063033;28;20028;-61
2021/07/10 07:28:58;;;;;;;33.38;16.42;;;;;;;20.36;59.83;101659.81;5062426;28;20067;-62
2021/07/10 07:31:24;;;;;;;27.88;13.13;;;;;;;20.49;56.49;101657.72;5065226;28;20020;-63
2021/07/10 07:33:49;;;;;;;26.58;10.40;;;;;;;20.51;54.63;101660.38;5061837;28;20091;-63
2021/07/10 07:36:15;;;;;;;22.70;8.80;;;;;;;20.65;53.29;101655.56;5064470;28;20525;-62
2021/07/10 07:38:40;;;;;;;28.88;13.75;;;;;;;20.88;54.88;101655.00;5062719;28;20099;-62
2021/07/10 07:41:06;;;;;;;31.98;16.35;;;;;;;21.13;55.85;101662.41;5063050;28;20067;-62
2021/07/10 07:43:32;;;;;;;32.60;15.38;;;;;;;21.27;55.53;101653.97;5063892;28;20074;-61
2021/07/10 07:45:57;;;;;;;30.75;15.50;;;;;;;21.45;55.86;101657.97;5061804;28;20448;-61
2021/07/10 07:48:23;;;;;;;30.83;16.10;;;;;;;21.52;55.23;101656.91;5064456;28;20052;-61
2021/07/10 07:50:48;;;;;;;32.50;15.82;;;;;;;21.65;56.15;101653.84;5043299;28;20077;-61
2021/07/10 07:53:16;;;;;;;30.85;15.50;;;;;;;21.69;55.59;101651.00;5063974;28;20048;-61
2021/07/10 07:55:43;;;;;;;30.60;14.52;;;;;;;21.77;54.99;101657.06;5062426;28;20035;-62
2021/07/10 07:58:09;;;;;;;30.15;14.77;;;;;;;21.91;54.88;101655.75;5062942;28;20017;-62
2021/07/10 08:00:34;;;;;;;29.00;14.23;;;;;;;22.01;54.50;101657.22;5063141;28;20024;-61
2021/07/10 08:03:00;;;;;;;28.85;13.68;;;;;;;22.08;54.15;101648.03;5061904;28;20049;-62
2021/07/10 08:05:25;;;;;;;29.40;14.00;;;;;;;22.25;53.19;101642.13;5064442;28;20024;-62
2021/07/10 08:07:52;;;;;;;27.75;13.43;;;;;;;22.38;51.56;101639.97;5060707;28;20388;-61
2021/07/10 08:10:17;;;;;;;29.20;13.77;;;;;;;22.53;52.44;101640.38;5064276;28;20064;-61
2021/07/10 08:12:45;;;;;;;28.27;13.25;;;;;;;22.71;51.88;101636.19;5061909;28;20047;-61
2021/07/10 08:15:12;;;;;;;30.73;14.43;;;;;;;22.90;51.05;101641.81;5062926;28;20065;-62
2021/07/10 08:17:37;;;;;;;30.15;14.32;;;;;;;22.78;50.54;101630.53;5062628;28;20040;-62
2021/07/10 08:20:05;;;;;;;29.00;14.32;;;;;;;22.87;49.85;101631.16;5061797;28;20032;-62
2021/07/10 08:22:30;;;;;;;29.17;14.13;;;;;;;22.94;49.62;101630.00;5063332;28;20024;-62
2021/07/10 08:24:56;;;;;;;28.17;13.40;;;;;;;23.09;50.62;101640.22;5061040;28;20028;-61
2021/07/10 08:27:21;;;;;;;28.95;13.80;;;;;;;23.28;49.90;101631.50;5058857;28;20044;-63
2021/07/10 08:29:46;;;;;;;26.95;12.77;;;;;;;23.42;49.85;101631.03;5064023;28;20067;-62
2021/07/10 08:32:12;;;;;;;28.50;14.10;;;;;;;23.57;50.06;101632.25;5060489;28;20029;-62
2021/07/10 08:34:37;;;;;;;29.50;14.25;;;;;;;23.63;49.17;101630.19;5063368;28;20055;-63
2021/07/10 08:37:04;;;;;;;29.85;14.10;;;;;;;23.74;49.70;101628.94;5060948;28;20036;-62
2021/07/10 08:39:29;;;;;;;30.92;14.90;;;;;;;23.68;49.88;101628.22;5062015;28;20017;-64
2021/07/10 08:41:55;;;;;;;30.35;14.88;;;;;;;23.57;48.48;101630.44;5044702;28;20051;-61
2021/07/10 08:44:20;;;;;;;30.83;14.80;;;;;;;23.40;48.93;101624.78;5061151;28;20025;-62
2021/07/10 08:46:47;;;;;;;28.75;14.23;;;;;;;23.49;50.89;101617.25;5063768;28;20028;-63
2021/07/10 08:49:16;;;;;;;30.27;15.05;;;;;;;23.62;49.77;101616.75;5060227;28;20045;-65
2021/07/10 08:51:47;;;;;;;28.48;13.98;;;;;;;23.62;48.67;101608.66;5060579;28;20025;-64
2021/07/10 08:54:13;;;;;;;30.85;15.13;;;;;;;23.51;47.86;101611.78;5060113;28;20021;-64
2021/07/10 08:56:39;;;;;;;29.70;14.75;;;;;;;23.72;48.51;101611.91;5063402;28;20029;-64
2021/07/10 08:59:08;;;;;;;29.35;14.15;;;;;;;23.82;48.86;101614.19;5061257;28;20090;-62
2021/07/10 09:01:34;;;;;;;30.58;15.13;;;;;;;23.82;48.58;101613.28;5063097;28;20427;-64
2021/07/10 09:03:59;;;;;;;30.02;15.20;;;;;;;23.52;48.98;101607.25;5061867;28;20073;-62
2021/07/10 09:06:25;;;;;;;30.63;15.18;;;;;;;23.45;49.48;101604.78;5061615;28;20123;-63
2021/07/10 09:08:57;;;;;;;31.45;16.13;;;;;;;23.30;48.93;101606.25;5062884;28;20084;-64
2021/07/10 09:11:23;;;;;;;;;;;;;;;23.73;50.28;101606.44;5061706;28;20082;-61
2021/07/10 09:13:51;;;;;;;31.05;15.43;;;;;;;24.01;47.93;101600.88;5063283;28;19916;-63
2021/07/10 09:16:29;;;;;;;27.98;14.38;;;;;;;24.29;48.32;101597.03;5060387;28;20045;-61
2021/07/10 09:18:56;;;;;;;27.10;13.05;;;;;;;24.60;47.75;101601.19;5062454;28;20032;-64
2021/07/10 09:21:44;;;;;;;28.38;13.00;;;;;;;25.01;48.30;101601.19;5060683;28;20476;-62
2021/07/10 09:24:09;;;;;;;25.98;12.75;;;;;;;25.29;46.03;101593.66;5060198;28;20029;-62
2021/07/10 09:27:00;;;;;;;25.15;12.20;;;;;;;25.29;45.81;101589.13;5062530;28;20033;-62
2021/07/10 09:29:31;;;;;;;26.08;12.85;;;;;;;25.29;46.11;101599.94;5060908;28;20086;-60
2021/07/10 09:32:02;;;;;;;25.97;12.57;;;;;;;25.10;46.61;101588.22;5062141;28;20124;-61
2021/07/10 09:34:36;;;;;;;26.52;12.52;;;;;;;25.31;44.66;101595.41;5061323;28;20078;-61
2021/07/10 09:37:03;;;;;;;27.60;11.93;;;;;;;25.71;44.84;101600.78;5061390;28;20024;-61
2021/07/10 09:39:32;;;;;;;27.25;13.18;;;;;;;26.15;45.20;101591.47;5061643;28;20074;-60
2021/07/10 09:41:58;;;;;;;27.80;12.73;;;;;;;26.45;43.81;101580.94;5061927;28;20491;-62
2021/07/10 09:44:25;;;;;;;25.15;11.10;;;;;;;26.98;42.00;101583.66;5061144;28;20475;-61
2021/07/10 09:46:50;;;;;;;24.67;11.60;;;;;;;26.96;39.85;101586.47;5062684;28;20567;-60
2021/07/10 09:49:20;;;;;;;23.98;10.77;;;;;;;26.51;40.59;101575.19;5061940;28;20137;-61
2021/07/10 09:51:46;;;;;;;24.35;10.55;;;;;;;26.23;42.01;101570.31;5063468;28;20057;-63
2021/07/10 09:54:12;;;;;;;24.30;10.32;;;;;;;26.71;39.88;101571.47;5066744;28;20059;-61
2021/07/10 09:56:57;;;;;;;22.20;9.30;;;;;;;27.09;40.96;101568.56;5064298;28;20060;-61
2021/07/10 09:59:24;;;;;;;23.80;10.30;;;;;;;27.66;39.39;101564.59;5064179;28;20115;-61
2021/07/10 10:01:51;;;;;;;24.95;11.52;;;;;;;27.34;38.57;101569.97;5066351;28;20107;-61
2021/07/10 10:04:24;;;;;;;27.70;12.80;;;;;;;26.76;41.73;101571.22;5063286;28;20025;-61
2021/07/10 10:06:49;;;;;;;26.63;12.32;;;;;;;27.09;39.80;101560.41;5063583;28;20524;-61
2021/07/10 10:09:17;;;;;;;23.55;9.80;;;;;;;28.40;35.38;101563.06;5066525;28;20100;-61
2021/07/10 10:12:00;;;;;;;22.73;8.95;;;;;;;28.98;36.46;101558.66;5063137;28;20024;-60
2021/07/10 10:14:30;;;;;;;23.98;9.50;;;;;;;28.72;35.14;101560.28;5064283;28;20533;-61
2021/07/10 10:16:59;;;;;;;22.02;9.10;;;;;;;28.20;36.23;101552.50;5065634;28;20017;-62
2021/07/10 10:19:30;;;;;;;24.20;10.65;;;;;;;27.77;36.32;101551.28;5063931;28;20029;-61
2021/07/10 10:21:58;;;;;;;23.40;10.30;;;;;;;27.41;37.40;101554.25;5065115;28;20034;-62
2021/07/10 10:24:26;;;;;;;23.10;10.35;;;;;;;27.42;38.63;101551.44;5063574;28;20032;-61
2021/07/10 10:26:52;;;;;;;23.73;10.43;;;;;;;27.36;38.18;101553.59;5065875;28;20442;-61
2021/07/10 10:29:19;;;;;;;22.75;9.55;;;;;;;27.19;38.82;101549.06;5062910;28;20412;-61
2021/07/10 10:31:46;;;;;;;20.30;7.05;;;;;;;27.23;35.51;101550.66;5066565;28;20348;-61
2021/07/10 10:34:13;;;;;;;19.00;6.70;;;;;;;27.07;35.18;101546.06;5062867;28;20075;-61
2021/07/10 10:36:45;;;;;;;21.02;8.65;;;;;;;27.36;36.07;101546.31;5065504;28;20043;-61
2021/07/10 10:39:12;;;;;;;;;;;;;;;28.62;35.04;101534.63;5063109;28;20075;-61
2021/07/10 10:41:44;;;;;;;21.67;8.77;;;;;;;30.22;32.58;101529.81;5065962;28;20345;-62
2021/07/10 10:44:10;;;;;;;20.83;8.00;;;;;;;31.96;28.53;101530.19;5063128;28;20419;-62
2021/07/10 10:46:52;;;;;;;22.67;9.18;;;;;;;33.62;29.08;101529.06;5064898;28;20392;-63
2021/07/10 10:49:45;;;;;;;23.02;10.15;;;;;;;35.44;25.51;101531.75;5062278;28;20034;-62
2021/07/10 10:52:24;;;;;;;22.88;9.60;;;;;;;34.04;27.12;101525.59;5062512;28;20476;-62
2021/07/10 10:54:52;;;;;;;22.02;9.48;;;;;;;34.30;27.13;101523.41;5062590;28;20167;-61
2021/07/10 10:57:33;;;;;;;22.52;9.80;;;;;;;36.10;25.09;101519.28;5065888;28;20027;-62
2021/07/10 10:59:59;;;;;;;23.40;10.40;;;;;;;35.49;24.67;101526.72;5063831;28;20029;-62
2021/07/10 11:02:27;;;;;;;23.42;10.57;;;;;;;33.74;25.93;101520.81;5064598;28;20028;-61
2021/07/10 11:04:58;;;;;;;22.75;9.65;;;;;;;32.43;28.34;101518.47;5062959;28;20032;-62
2021/07/10 11:07:36;;;;;;;23.75;10.57;;;;;;;30.84;30.09;101511.91;5064900;28;20123;-62